createdAt,value
2017-07-06T00:01:47.774Z,101275
2017-07-06T00:04:16.165Z,101271
2017-07-06T00:06:45.420Z,101271
2017-07-06T00:09:14.130Z,101277
2017-07-06T00:11:42.475Z,101270
2017-07-06T00:14:10.778Z,101266
2017-07-06T00:16:39.448Z,101269
2017-07-06T00:19:07.745Z,101270
2017-07-06T00:21:36.044Z,101264
2017-07-06T00:24:05.473Z,101265
2017-07-06T00:26:33.765Z,101271
2017-07-06T00:29:02.040Z,101273
2017-07-06T00:31:30.771Z,101271
2017-07-06T00:33:59.061Z,101265
2017-07-06T00:36:28.105Z,101266
2017-07-06T00:38:56.758Z,101267
2017-07-06T00:41:25.035Z,101258
2017-07-06T00:43:53.316Z,101256
2017-07-06T00:46:22.040Z,101265
2017-07-06T00:48:50.325Z,101262
2017-07-06T00:51:18.632Z,101259
2017-07-06T00:53:48.109Z,101253
2017-07-06T00:56:16.396Z,101257
2017-07-06T00:58:44.726Z,101263
2017-07-06T01:01:13.435Z,101266
2017-07-06T01:03:41.736Z,101261
2017-07-06T01:06:10.782Z,101264
2017-07-06T01:08:39.486Z,101264
2017-07-06T01:11:07.775Z,101263
2017-07-06T01:13:36.065Z,101263
2017-07-06T01:16:04.714Z,101262
2017-07-06T01:18:33.141Z,101255
2017-07-06T01:21:02.184Z,101261
2017-07-06T01:23:30.879Z,101258
2017-07-06T01:25:59.157Z,101261
2017-07-06T01:28:27.442Z,101262
2017-07-06T01:30:56.103Z,101263
2017-07-06T01:33:24.411Z,101263
2017-07-06T01:35:52.715Z,101264
2017-07-06T01:38:22.329Z,101260
2017-07-06T01:40:50.629Z,101267
2017-07-06T01:43:19.024Z,101266
2017-07-06T01:45:47.757Z,101272
2017-07-06T01:48:16.022Z,101269
2017-07-06T01:50:45.077Z,101266
2017-07-06T01:53:13.701Z,101257
2017-07-06T01:55:42.843Z,101265
2017-07-06T01:58:11.126Z,101261
2017-07-06T02:00:39.826Z,101262
2017-07-06T02:03:08.120Z,101270
2017-07-06T02:05:36.449Z,101264
2017-07-06T02:08:05.154Z,101262
2017-07-06T02:10:33.561Z,101271
2017-07-06T02:13:01.833Z,101263
2017-07-06T02:15:30.586Z,101266
2017-07-06T02:17:58.875Z,101270
2017-07-06T02:20:27.282Z,101278
2017-07-06T02:22:55.866Z,101268
2017-07-06T02:25:24.911Z,101271
2017-07-06T02:27:53.199Z,101274
2017-07-06T02:30:21.813Z,101276
2017-07-06T02:32:50.105Z,101272
2017-07-06T02:35:19.178Z,101268
2017-07-06T02:37:47.934Z,101279
2017-07-06T02:40:16.243Z,101275
2017-07-06T02:42:44.549Z,101274
2017-07-06T02:45:13.223Z,101267
2017-07-06T02:47:42.273Z,101272
2017-07-06T02:50:10.581Z,101276
2017-07-06T02:52:39.355Z,101278
2017-07-06T02:55:07.647Z,101271
2017-07-06T02:57:36.690Z,101280
2017-07-06T03:00:05.498Z,101279
2017-07-06T03:02:33.801Z,101278
2017-07-06T03:05:02.882Z,101291
2017-07-06T03:07:31.550Z,101288
2017-07-06T03:09:59.842Z,101277
2017-07-06T03:12:28.158Z,101286
2017-07-06T03:14:56.887Z,101279
2017-07-06T03:17:25.238Z,101284
2017-07-06T03:19:53.503Z,101284
2017-07-06T03:22:22.219Z,101288
2017-07-06T03:24:50.493Z,101290
2017-07-06T03:27:18.778Z,101287
2017-07-06T03:29:47.453Z,101290
2017-07-06T03:32:15.790Z,101289
2017-07-06T03:34:44.068Z,101291
2017-07-06T03:37:12.886Z,101293
2017-07-06T03:39:41.167Z,101289
2017-07-06T03:42:09.446Z,101299
2017-07-06T03:44:38.079Z,101300
2017-07-06T03:47:07.277Z,101292
2017-07-06T03:49:36.393Z,101299
2017-07-06T03:52:05.111Z,101300
2017-07-06T03:54:33.461Z,101305
2017-07-06T03:57:01.755Z,101297
2017-07-06T03:59:30.443Z,101293
2017-07-06T04:01:58.725Z,101300
2017-07-06T04:04:27.015Z,101293
2017-07-06T04:06:55.644Z,101298
2017-07-06T04:09:23.923Z,101294
2017-07-06T04:11:52.199Z,101298
2017-07-06T04:14:20.874Z,101303
2017-07-06T04:16:49.155Z,101298
2017-07-06T04:19:17.454Z,101302
2017-07-06T04:21:46.106Z,101302
2017-07-06T04:24:14.415Z,101307
2017-07-06T04:26:42.782Z,101304
2017-07-06T04:29:11.398Z,101315
2017-07-06T04:31:39.695Z,101310
2017-07-06T04:34:07.965Z,101309
2017-07-06T04:36:36.632Z,101309
2017-07-06T04:39:05.020Z,101303
2017-07-06T04:41:33.324Z,101298
2017-07-06T04:44:02.795Z,101295
2017-07-06T04:46:31.111Z,101293
2017-07-06T04:48:59.409Z,101288
2017-07-06T04:51:28.105Z,101291
2017-07-06T04:53:56.385Z,101293
2017-07-06T04:56:24.684Z,101298
2017-07-06T04:58:53.356Z,101302
2017-07-06T05:01:21.764Z,101300
2017-07-06T05:03:50.056Z,101301
2017-07-06T05:06:18.682Z,101296
2017-07-06T05:08:46.966Z,101297
2017-07-06T05:11:15.294Z,101296
2017-07-06T05:13:44.035Z,101289
2017-07-06T05:16:12.332Z,101293
2017-07-06T05:18:40.604Z,101288
2017-07-06T05:21:09.487Z,101294
2017-07-06T05:23:37.985Z,101287
2017-07-06T05:26:07.038Z,101290
2017-07-06T05:28:35.830Z,101289
2017-07-06T05:31:04.115Z,101288
2017-07-06T05:33:32.414Z,101292
2017-07-06T05:36:01.154Z,101293
2017-07-06T05:38:29.431Z,101297
2017-07-06T05:40:57.713Z,101294
2017-07-06T05:43:26.389Z,101291
2017-07-06T05:45:54.684Z,101284
2017-07-06T05:48:22.975Z,101295
2017-07-06T05:50:51.640Z,101289
2017-07-06T05:53:19.914Z,101291
2017-07-06T05:55:48.211Z,101296
2017-07-06T05:58:16.883Z,101300
2017-07-06T06:00:45.215Z,101297
2017-07-06T06:03:13.523Z,101296
2017-07-06T06:05:42.218Z,101303
2017-07-06T06:08:10.524Z,101301
2017-07-06T06:10:39.578Z,101304
2017-07-06T06:13:08.340Z,101308
2017-07-06T06:15:36.630Z,101315
2017-07-06T06:18:04.916Z,101319
2017-07-06T06:20:33.554Z,101319
2017-07-06T06:23:01.862Z,101313
2017-07-06T06:25:30.160Z,101315
2017-07-06T06:27:58.833Z,101320
2017-07-06T06:30:27.101Z,101319
2017-07-06T06:32:55.384Z,101311
2017-07-06T06:35:24.118Z,101315
2017-07-06T06:37:52.353Z,101308
2017-07-06T06:40:20.655Z,101310
2017-07-06T06:42:50.047Z,101315
2017-07-06T06:45:18.342Z,101317
2017-07-06T06:47:47.405Z,101321
2017-07-06T06:50:16.081Z,101325
2017-07-06T06:52:44.371Z,101322
2017-07-06T06:55:12.643Z,101310
2017-07-06T06:57:41.305Z,101323
2017-07-06T07:00:09.593Z,101319
2017-07-06T07:02:37.882Z,101312
2017-07-06T07:05:06.536Z,101315
2017-07-06T07:07:34.816Z,101311
2017-07-06T07:10:03.183Z,101313
2017-07-06T07:12:31.835Z,101317
2017-07-06T07:15:00.286Z,101325
2017-07-06T07:17:28.638Z,101322
2017-07-06T07:19:57.231Z,101323
2017-07-06T07:22:25.549Z,101321
2017-07-06T07:24:53.840Z,101323
2017-07-06T07:27:22.436Z,101333
2017-07-06T07:29:50.693Z,101334
2017-07-06T07:32:19.747Z,101345
2017-07-06T07:34:48.307Z,101340
2017-07-06T07:37:16.577Z,101339
2017-07-06T07:39:44.891Z,101350
2017-07-06T07:42:13.486Z,101342
2017-07-06T07:44:42.588Z,101339
2017-07-06T07:47:11.662Z,101329
2017-07-06T07:49:40.317Z,101334
2017-07-06T07:52:08.604Z,101327
2017-07-06T07:54:36.892Z,101326
2017-07-06T07:57:05.570Z,101326
2017-07-06T07:59:33.975Z,101325
2017-07-06T08:02:03.029Z,101325
2017-07-06T08:04:31.629Z,101320
2017-07-06T08:07:00.079Z,101316
2017-07-06T08:09:28.372Z,101325
2017-07-06T08:11:56.955Z,101320
2017-07-06T08:14:25.259Z,101321
2017-07-06T08:16:54.302Z,101326
2017-07-06T08:19:22.890Z,101331
2017-07-06T08:21:51.259Z,101328
2017-07-06T08:24:19.537Z,101326
2017-07-06T08:26:48.105Z,101328
2017-07-06T08:29:16.432Z,101330
2017-07-06T08:31:44.725Z,101337
2017-07-06T08:34:13.307Z,101329
2017-07-06T08:36:41.671Z,101323
2017-07-06T08:39:09.993Z,101335
2017-07-06T08:41:38.700Z,101338
2017-07-06T08:44:06.977Z,101333
2017-07-06T08:46:35.257Z,101333
2017-07-06T08:49:04.038Z,101326
2017-07-06T08:51:32.327Z,101334
2017-07-06T08:54:01.050Z,101329
2017-07-06T08:56:29.622Z,101328
2017-07-06T08:58:57.951Z,101319
2017-07-06T09:01:26.240Z,101318
2017-07-06T09:03:54.830Z,101316
2017-07-06T09:06:23.118Z,101320
2017-07-06T09:08:51.411Z,101316
2017-07-06T09:11:20.050Z,101306
2017-07-06T09:13:48.338Z,101310
2017-07-06T09:16:16.601Z,101307
2017-07-06T09:18:45.281Z,101309
2017-07-06T09:21:13.573Z,101306
2017-07-06T09:23:41.860Z,101305
2017-07-06T09:26:10.520Z,101303
2017-07-06T09:28:38.806Z,101295
2017-07-06T09:31:07.093Z,101304
2017-07-06T09:33:35.931Z,101293
2017-07-06T09:36:04.205Z,101300
2017-07-06T09:38:32.482Z,101300
2017-07-06T09:41:01.269Z,101296
2017-07-06T09:43:29.550Z,101306
2017-07-06T09:45:57.830Z,101302
2017-07-06T09:48:26.551Z,101296
2017-07-06T09:50:54.850Z,101306
2017-07-06T09:53:23.137Z,101298
2017-07-06T09:55:52.582Z,101302
2017-07-06T09:58:20.956Z,101305
2017-07-06T10:00:49.333Z,101298
2017-07-06T10:03:18.269Z,101291
2017-07-06T10:05:46.554Z,101301
2017-07-06T10:08:15.617Z,101296
2017-07-06T10:10:44.311Z,101286
2017-07-06T10:13:12.633Z,101286
2017-07-06T10:15:40.943Z,101291
2017-07-06T10:18:09.549Z,101286
2017-07-06T10:20:37.882Z,101281
2017-07-06T10:23:06.162Z,101282
2017-07-06T10:25:34.753Z,101282
2017-07-06T10:28:03.090Z,101280
2017-07-06T10:30:32.127Z,101278
2017-07-06T10:33:00.722Z,101274
2017-07-06T10:35:29.010Z,101276
2017-07-06T10:37:57.359Z,101269
2017-07-06T10:40:26.079Z,101270
2017-07-06T10:42:54.348Z,101260
2017-07-06T10:45:22.646Z,101265
2017-07-06T10:47:51.964Z,101266
2017-07-06T10:50:21.043Z,101257
2017-07-06T10:52:50.124Z,101263
2017-07-06T10:55:18.792Z,101264
2017-07-06T10:57:47.103Z,101263
2017-07-06T11:00:16.231Z,101261
2017-07-06T11:02:44.961Z,101263
2017-07-06T11:05:13.282Z,101268
2017-07-06T11:07:41.573Z,101263
2017-07-06T11:10:10.192Z,101258
2017-07-06T11:12:38.457Z,101250
2017-07-06T11:15:06.722Z,101260
2017-07-06T11:17:35.302Z,101258
2017-07-06T11:20:03.735Z,101248
2017-07-06T11:22:32.781Z,101247
2017-07-06T11:25:01.478Z,101243
2017-07-06T11:27:29.832Z,101247
2017-07-06T11:29:58.136Z,101251
2017-07-06T11:32:26.822Z,101247
2017-07-06T11:34:55.110Z,101239
2017-07-06T11:37:23.480Z,101238
2017-07-06T11:39:52.137Z,101235
2017-07-06T11:42:20.619Z,101230
2017-07-06T11:44:48.915Z,101240
2017-07-06T11:47:17.578Z,101232
2017-07-06T11:49:46.622Z,101228
2017-07-06T11:52:15.667Z,101224
2017-07-06T11:54:44.362Z,101225
2017-07-06T11:57:12.683Z,101224
2017-07-06T11:59:41.766Z,101218
2017-07-06T12:02:11.095Z,101227
2017-07-06T12:04:39.423Z,101225
2017-07-06T12:07:07.689Z,101224
2017-07-06T12:09:36.353Z,101224
2017-07-06T12:12:04.615Z,101227
2017-07-06T12:14:33.002Z,101213
2017-07-06T12:17:01.691Z,101219
2017-07-06T12:19:29.991Z,101216
2017-07-06T12:21:58.285Z,101217
2017-07-06T12:24:27.649Z,101224
2017-07-06T12:26:55.934Z,101222
2017-07-06T12:29:24.303Z,101215
2017-07-06T12:31:52.988Z,101215
2017-07-06T12:34:21.277Z,101212
2017-07-06T12:36:49.574Z,101205
2017-07-06T12:39:18.223Z,101217
2017-07-06T12:41:46.509Z,101219
2017-07-06T12:44:14.797Z,101221
2017-07-06T12:46:43.549Z,101211
2017-07-06T12:49:11.825Z,101208
2017-07-06T12:51:40.128Z,101206
2017-07-06T12:54:08.795Z,101205
2017-07-06T12:56:37.067Z,101206
2017-07-06T12:59:05.366Z,101210
2017-07-06T13:01:33.959Z,101198
2017-07-06T13:04:02.270Z,101204
2017-07-06T13:06:30.571Z,101203
2017-07-06T13:08:59.249Z,101200
2017-07-06T13:11:27.534Z,101196
2017-07-06T13:13:55.815Z,101198
2017-07-06T13:16:24.392Z,101194
2017-07-06T13:18:52.686Z,101189
2017-07-06T13:21:20.964Z,101182
2017-07-06T13:23:49.642Z,101189
2017-07-06T13:26:17.945Z,101194
2017-07-06T13:28:46.214Z,101194
2017-07-06T13:31:14.888Z,101183
2017-07-06T13:33:43.170Z,101189
2017-07-06T13:36:11.479Z,101188
2017-07-06T13:38:40.930Z,101187
2017-07-06T13:41:09.263Z,101173
2017-07-06T13:43:37.602Z,101173
2017-07-06T13:46:06.295Z,101172
2017-07-06T13:48:34.581Z,101166
2017-07-06T13:51:03.618Z,101158
2017-07-06T13:53:32.286Z,101159
2017-07-06T13:56:00.716Z,101152
2017-07-06T13:58:29.161Z,101150
2017-07-06T14:00:57.855Z,101143
2017-07-06T14:03:26.235Z,101143
2017-07-06T14:05:54.517Z,101146
2017-07-06T14:08:23.446Z,101139
2017-07-06T14:10:52.517Z,101129
2017-07-06T14:13:20.889Z,101132
2017-07-06T14:15:49.446Z,101127
2017-07-06T14:18:17.784Z,101130
2017-07-06T14:20:46.885Z,101127
2017-07-06T14:23:16.225Z,101125
2017-07-06T14:25:44.513Z,101129
2017-07-06T14:28:12.809Z,101124
2017-07-06T14:30:41.480Z,101125
2017-07-06T14:33:09.769Z,101123
2017-07-06T14:35:38.073Z,101119
2017-07-06T14:38:07.554Z,101117
2017-07-06T14:40:36.038Z,101118
2017-07-06T14:43:04.357Z,101116
2017-07-06T14:45:33.027Z,101111
2017-07-06T14:48:01.353Z,101105
2017-07-06T14:50:29.698Z,101108
2017-07-06T14:52:59.479Z,101092
2017-07-06T14:55:28.536Z,101100
2017-07-06T14:57:56.814Z,101090
2017-07-06T15:00:25.518Z,101085
2017-07-06T15:02:53.856Z,101073
2017-07-06T15:05:22.249Z,101076
2017-07-06T15:07:51.002Z,101068
2017-07-06T15:10:20.046Z,101064
2017-07-06T15:12:48.464Z,101062
2017-07-06T15:15:17.098Z,101058
2017-07-06T15:17:45.396Z,101053
2017-07-06T15:20:14.471Z,101046
2017-07-06T15:22:43.165Z,101051
2017-07-06T15:25:12.560Z,101053
2017-07-06T15:27:40.860Z,101048
2017-07-06T15:30:10.418Z,101058
2017-07-06T15:32:38.737Z,101065
2017-07-06T15:35:08.076Z,101047
2017-07-06T15:37:36.873Z,101050
2017-07-06T15:40:05.189Z,101040
2017-07-06T15:42:33.523Z,101040
2017-07-06T15:45:02.282Z,101038
2017-07-06T15:47:30.564Z,101037
2017-07-06T15:49:58.949Z,101030
2017-07-06T15:52:27.767Z,101026
2017-07-06T15:54:56.057Z,101024
2017-07-06T15:57:24.357Z,101009
2017-07-06T15:59:53.004Z,101005
2017-07-06T16:02:21.303Z,101005
2017-07-06T16:04:49.599Z,101004
2017-07-06T16:07:19.049Z,100997
2017-07-06T16:09:47.355Z,100994
2017-07-06T16:12:15.629Z,100990
2017-07-06T16:14:44.320Z,100981
2017-07-06T16:17:12.624Z,100986
2017-07-06T16:19:40.927Z,100974
2017-07-06T16:22:09.521Z,100981
2017-07-06T16:24:37.819Z,100984
2017-07-06T16:27:06.134Z,100979
2017-07-06T16:29:34.880Z,100983
2017-07-06T16:32:03.169Z,100974
2017-07-06T16:34:31.482Z,100982
2017-07-06T16:37:00.195Z,100990
2017-07-06T16:39:28.479Z,100977
2017-07-06T16:41:56.811Z,100980
2017-07-06T16:44:26.235Z,100972
2017-07-06T16:46:54.553Z,100971
2017-07-06T16:49:22.829Z,100966
2017-07-06T16:51:51.589Z,100974
2017-07-06T16:54:19.909Z,100955
2017-07-06T16:56:49.054Z,100970
2017-07-06T16:59:17.771Z,100961
2017-07-06T17:01:46.037Z,100951
2017-07-06T17:04:14.615Z,100952
2017-07-06T17:06:43.313Z,100952
2017-07-06T17:09:11.606Z,100952
2017-07-06T17:11:39.868Z,100961
2017-07-06T17:14:08.522Z,100969
2017-07-06T17:16:36.825Z,100957
2017-07-06T17:19:05.126Z,100961
2017-07-06T17:21:34.579Z,100954
2017-07-06T17:24:02.851Z,100954
2017-07-06T17:26:31.209Z,100958
2017-07-06T17:28:59.936Z,100956
2017-07-06T17:31:28.261Z,100963
2017-07-06T17:33:56.555Z,100959
2017-07-06T17:36:25.302Z,100960
2017-07-06T17:38:54.386Z,100958
2017-07-06T17:41:22.697Z,100958
2017-07-06T17:43:51.344Z,100946
2017-07-06T17:46:19.735Z,100949
2017-07-06T17:48:48.810Z,100947
2017-07-06T17:51:17.470Z,100951
2017-07-06T17:53:45.789Z,100949
2017-07-06T17:56:14.851Z,100944
2017-07-06T17:58:43.809Z,100938
2017-07-06T18:01:12.096Z,100948
2017-07-06T18:03:40.384Z,100945
2017-07-06T18:06:09.074Z,100943
2017-07-06T18:08:37.374Z,100939
2017-07-06T18:11:05.658Z,100929
2017-07-06T18:13:35.334Z,100922
2017-07-06T18:16:03.636Z,100933
2017-07-06T18:18:31.945Z,100922
2017-07-06T18:21:00.565Z,100927
2017-07-06T18:23:28.843Z,100919
2017-07-06T18:25:57.174Z,100918
2017-07-06T18:28:25.737Z,100919
2017-07-06T18:30:54.055Z,100922
2017-07-06T18:33:22.343Z,100922
2017-07-06T18:35:50.958Z,100930
2017-07-06T18:38:19.272Z,100934
2017-07-06T18:40:47.562Z,100929
2017-07-06T18:43:16.170Z,100926
2017-07-06T18:45:44.440Z,100923
2017-07-06T18:48:12.732Z,100922
2017-07-06T18:50:41.499Z,100917
2017-07-06T18:53:09.798Z,100934
2017-07-06T18:55:38.145Z,100933
2017-07-06T18:58:06.874Z,100936
2017-07-06T19:00:35.955Z,100942
2017-07-06T19:03:04.249Z,100940
2017-07-06T19:05:32.864Z,100941
2017-07-06T19:08:01.152Z,100943
2017-07-06T19:10:29.496Z,100951
2017-07-06T19:12:58.162Z,100948
2017-07-06T19:15:26.453Z,100948
2017-07-06T19:17:54.745Z,100948
2017-07-06T19:20:23.487Z,100949
2017-07-06T19:22:51.787Z,100948
2017-07-06T19:25:20.835Z,100950
2017-07-06T19:27:49.436Z,100952
2017-07-06T19:30:17.738Z,100949
2017-07-06T19:32:46.818Z,100962
2017-07-06T19:35:15.491Z,100952
2017-07-06T19:37:43.795Z,100958
2017-07-06T19:40:12.890Z,100960
2017-07-06T19:42:42.358Z,100967
2017-07-06T19:45:10.644Z,100970
2017-07-06T19:47:38.951Z,100958
2017-07-06T19:50:08.422Z,100963
2017-07-06T19:52:36.736Z,100961
2017-07-06T19:55:05.097Z,100964
2017-07-06T19:57:34.569Z,100965
2017-07-06T20:00:03.004Z,100974
2017-07-06T20:02:32.982Z,100971
2017-07-06T20:05:01.880Z,100976
2017-07-06T20:07:30.211Z,100971
2017-07-06T20:09:58.495Z,100968
2017-07-06T20:12:27.372Z,100967
2017-07-06T20:14:55.678Z,100968
2017-07-06T20:17:23.959Z,100964
2017-07-06T20:19:52.679Z,100967
2017-07-06T20:22:21.743Z,100971
2017-07-06T20:24:50.044Z,100962
2017-07-06T20:27:19.513Z,100958
2017-07-06T20:29:47.819Z,100964
2017-07-06T20:32:16.851Z,100960
2017-07-06T20:34:45.643Z,100960
2017-07-06T20:37:13.952Z,100946
2017-07-06T20:39:42.248Z,100943
2017-07-06T20:42:10.901Z,100935
2017-07-06T20:44:39.246Z,100934
2017-07-06T20:47:07.589Z,100939
2017-07-06T20:49:37.053Z,100930
2017-07-06T20:52:05.332Z,100943
2017-07-06T20:54:33.659Z,100938
2017-07-06T20:57:02.303Z,100936
2017-07-06T20:59:30.758Z,100935
2017-07-06T21:01:59.037Z,100930
2017-07-06T21:04:27.705Z,100921
2017-07-06T21:06:55.992Z,100926
2017-07-06T21:09:24.360Z,100928
2017-07-06T21:11:52.999Z,100927
2017-07-06T21:14:22.141Z,100917
2017-07-06T21:16:50.464Z,100916
2017-07-06T21:19:19.112Z,100920
2017-07-06T21:21:47.425Z,100911
2017-07-06T21:24:15.715Z,100910
2017-07-06T21:26:45.177Z,100904
2017-07-06T21:29:13.489Z,100896
2017-07-06T21:31:41.869Z,100903
2017-07-06T21:34:10.600Z,100896
2017-07-06T21:36:38.887Z,100896
2017-07-06T21:39:07.195Z,100896
2017-07-06T21:41:35.865Z,100892
2017-07-06T21:44:04.267Z,100892
2017-07-06T21:46:32.549Z,100902
2017-07-06T21:49:02.217Z,100903
2017-07-06T21:51:30.497Z,100896
2017-07-06T21:53:58.779Z,100892
2017-07-06T21:56:28.085Z,100894
2017-07-06T21:58:56.381Z,100893
2017-07-06T22:01:25.611Z,100895
2017-07-06T22:03:54.245Z,100896
2017-07-06T22:06:22.549Z,100883
2017-07-06T22:08:51.726Z,100888
2017-07-06T22:11:20.469Z,100885
2017-07-06T22:13:48.771Z,100894
2017-07-06T22:16:17.044Z,100907
2017-07-06T22:18:45.667Z,100914
2017-07-06T22:21:13.986Z,100913
2017-07-06T22:23:42.278Z,100917
2017-07-06T22:26:10.849Z,100920
2017-07-06T22:28:39.170Z,100921
2017-07-06T22:31:08.235Z,100912
2017-07-06T22:33:36.806Z,100915
2017-07-06T22:36:05.092Z,100912
2017-07-06T22:38:33.388Z,100917
2017-07-06T22:41:02.857Z,100926
2017-07-06T22:43:31.249Z,100916
2017-07-06T22:45:59.587Z,100928
2017-07-06T22:48:28.198Z,100915
2017-07-06T22:50:56.470Z,100907
2017-07-06T22:53:24.741Z,100906
2017-07-06T22:55:53.285Z,100904
2017-07-06T22:58:21.573Z,100905
2017-07-06T23:00:49.881Z,100901
2017-07-06T23:03:18.648Z,100892
2017-07-06T23:05:46.940Z,100877
2017-07-06T23:08:15.216Z,100866
2017-07-06T23:10:43.789Z,100868
2017-07-06T23:13:12.072Z,100870
2017-07-06T23:15:40.363Z,100875
2017-07-06T23:18:09.032Z,100861
2017-07-06T23:20:37.308Z,100852
2017-07-06T23:23:05.607Z,100845
2017-07-06T23:25:34.193Z,100850
2017-07-06T23:28:02.475Z,100844
2017-07-06T23:30:30.779Z,100838
2017-07-06T23:32:59.410Z,100821
2017-07-06T23:35:27.711Z,100837
2017-07-06T23:37:56.153Z,100844
2017-07-06T23:40:24.725Z,100845
2017-07-06T23:42:53.090Z,100836
2017-07-06T23:45:21.378Z,100829
2017-07-06T23:47:49.983Z,100821
2017-07-06T23:50:18.309Z,100819
2017-07-06T23:52:46.588Z,100823
2017-07-06T23:55:15.197Z,100819
2017-07-06T23:57:43.491Z,100820
